Aeroporto :
LOGIN :

Iscrizione | Disclaimer

   EN    FR    IT 

 










Sommario :    VFR   VFR Marginale   IFR   IFR Intensivo   IFR Molto Intensivo
Visibilità : 
Base nubi : 
>= 8 km
>= 3000ft
5 / 8 km
1000 / 3000 ft
1500m / 5 km
500 / 1000 ft
800 / 1500m
200 / 500 ft
< 800m
< 200 ft
Simboli :   Temporali  Nebbia  Neve Forte  Precipitazioni Forti  Vento > 20 kt
SIGMETs :   Varie  Temporali  Ghiacco  Turbolenza  Onda orograficha  Ceneri Vulcaniche







- Altitudine del aeroporto : 794 ft


LKCV - Čáslav Air Base

ULTIMO METAR :
  • 240800Z 15017KT 9999 OVC018 12/08 Q1010 NOSIG RMK WHT WHT

METARs OBSOLETI :
  • 240700Z 14016KT 9999 OVC017 11/08 Q1009 NOSIG RMK WHT WHT
  • 240600Z 14018KT 9999 OVC017 11/08 Q1009 NOSIG RMK WHT WHT

TAF TAF LKCV
Valido dal 24 a 06 ore il 25 a 06 ore UTC


240500Z 2406/2506 14018KT 9999 OVC020
TEMPO 2406/2502 14024G34KT
PROB40
TEMPO 2406/2408 8000 RA OVC014
BECMG 2407/2409 9999 BKN028
BECMG 2410/2413 15022KT CAVOK
Nessun NOTAM noto per questo aeroporto.



MetMap, La meteo Aeronautica in un colpo d'occhio ! - Copyright ORBIFLY Dicembre 2007 - Disclaimer

ORBIFLY MET'MAP TEAM :

Programmazione e sviluppo : Alexandra Zaïnal
Concezione e sviluppo : Baudouin d'Aumeries
Co-Programmazione e sviluppo : Marc-Olivier Méhu
Supporto tecnico e logistico : Manuel Goepfert
Aiuto per la traduzione : Arnaldo La Scala

Contatto : metmap@orbifly.com




FONTI E CREDITI :

   NOAA